Airport View

Enter AWOS ICAO identifier for current METAR.

ex. KFNL

KPVF 192335Z AUTO 30006KT 10SM CLR 27/03 A3004 RMK AO1

19 Oct 2020 23:36

Frequency: 128.125

Phone: 530-622-5698

Other Area AWOS: KAUN - KJAQ - KMHR - KLHM

TAF KMHR 191726Z 1918/2018 VRB04KT P6SM SKC